sensor_id;sensor_type;location;lat;lon;timestamp;pressure;altitude;pressure_sealevel;temperature;humidity
31357;BME280;60001;48.404;11.738;2023-02-10T00:01:02;97970.28;;;-2.63;73.54
31357;BME280;60001;48.404;11.738;2023-02-10T00:02:34;97970.38;;;-2.65;73.32
31357;BME280;60001;48.404;11.738;2023-02-10T00:04:06;97975.69;;;-2.66;73.58
31357;BME280;60001;48.404;11.738;2023-02-10T00:05:38;97983.56;;;-2.68;74.44
31357;BME280;60001;48.404;11.738;2023-02-10T00:07:10;97983.56;;;-2.68;73.94
31357;BME280;60001;48.404;11.738;2023-02-10T00:08:46;97973.19;;;-2.78;74.30
31357;BME280;60001;48.404;11.738;2023-02-10T00:10:18;97981.25;;;-2.71;73.62
31357;BME280;60001;48.404;11.738;2023-02-10T00:11:49;97987.25;;;-2.70;73.42
31357;BME280;60001;48.404;11.738;2023-02-10T00:13:30;97987.34;;;-2.72;73.28
31357;BME280;60001;48.404;11.738;2023-02-10T00:15:03;97992.66;;;-2.73;74.54
31357;BME280;60001;48.404;11.738;2023-02-10T00:16:35;97995.38;;;-2.75;73.38
31357;BME280;60001;48.404;11.738;2023-02-10T00:18:07;97988.56;;;-2.76;74.00
31357;BME280;60001;48.404;11.738;2023-02-10T00:19:39;97999.16;;;-2.79;72.94
31357;BME280;60001;48.404;11.738;2023-02-10T00:21:14;97994.25;;;-2.82;74.04
31357;BME280;60001;48.404;11.738;2023-02-10T00:22:46;98005.03;;;-2.77;73.82
31357;BME280;60001;48.404;11.738;2023-02-10T00:24:20;98004.06;;;-2.76;74.30
31357;BME280;60001;48.404;11.738;2023-02-10T00:25:51;97992.91;;;-2.77;73.53
31357;BME280;60001;48.404;11.738;2023-02-10T00:27:23;97992.78;;;-2.75;74.46
31357;BME280;60001;48.404;11.738;2023-02-10T00:28:55;97992.53;;;-2.72;74.23
31357;BME280;60001;48.404;11.738;2023-02-10T00:30:27;98001.50;;;-2.76;73.48
31357;BME280;60001;48.404;11.738;2023-02-10T00:31:59;98007.47;;;-2.76;73.29
31357;BME280;60001;48.404;11.738;2023-02-10T00:33:30;98007.72;;;-2.79;74.16
31357;BME280;60001;48.404;11.738;2023-02-10T00:35:01;98013.72;;;-2.78;73.52
31357;BME280;60001;48.404;11.738;2023-02-10T00:36:33;98015.75;;;-2.82;74.12
31357;BME280;60001;48.404;11.738;2023-02-10T00:38:05;98015.75;;;-2.82;73.73
31357;BME280;60001;48.404;11.738;2023-02-10T00:39:38;98024.31;;;-2.81;74.93
31357;BME280;60001;48.404;11.738;2023-02-10T00:41:12;98020.09;;;-2.82;74.80
31357;BME280;60001;48.404;11.738;2023-02-10T00:42:44;98031.94;;;-2.80;74.34
31357;BME280;60001;48.404;11.738;2023-02-10T00:44:16;98020.91;;;-2.82;75.17
31357;BME280;60001;48.404;11.738;2023-02-10T00:45:48;98013.03;;;-2.80;74.09
31357;BME280;60001;48.404;11.738;2023-02-10T00:47:20;98013.16;;;-2.82;75.09
31357;BME280;60001;48.404;11.738;2023-02-10T00:48:54;98025.72;;;-2.77;75.19
31357;BME280;60001;48.404;11.738;2023-02-10T00:50:24;98026.53;;;-2.77;74.41
31357;BME280;60001;48.404;11.738;2023-02-10T00:51:57;98009.16;;;-2.86;74.27
31357;BME280;60001;48.404;11.738;2023-02-10T00:53:29;98032.88;;;-2.81;74.71
31357;BME280;60001;48.404;11.738;2023-02-10T00:55:02;98032.88;;;-2.81;74.45
31357;BME280;60001;48.404;11.738;2023-02-10T00:56:34;98029.59;;;-2.83;74.78
31357;BME280;60001;48.404;11.738;2023-02-10T00:58:06;98032.44;;;-2.86;73.93
31357;BME280;60001;48.404;11.738;2023-02-10T00:59:38;98030.09;;;-2.89;74.68
31357;BME280;60001;48.404;11.738;2023-02-10T01:01:10;98028.59;;;-2.91;74.84
31357;BME280;60001;48.404;11.738;2023-02-10T01:02:41;98031.28;;;-2.93;75.11
31357;BME280;60001;48.404;11.738;2023-02-10T01:04:13;98032.38;;;-2.95;75.23
31357;BME280;60001;48.404;11.738;2023-02-10T01:05:45;98036.72;;;-2.96;74.46
31357;BME280;60001;48.404;11.738;2023-02-10T01:07:16;98030.72;;;-2.96;74.94
31357;BME280;60001;48.404;11.738;2023-02-10T01:08:48;98033.19;;;-2.95;75.41
31357;BME280;60001;48.404;11.738;2023-02-10T01:10:21;98031.28;;;-2.93;75.64
31357;BME280;60001;48.404;11.738;2023-02-10T01:11:53;98029.66;;;-2.94;74.63
31357;BME280;60001;48.404;11.738;2023-02-10T01:13:25;98032.09;;;-2.92;75.02
31357;BME280;60001;48.404;11.738;2023-02-10T01:14:56;98026.13;;;-2.93;74.13
31357;BME280;60001;48.404;11.738;2023-02-10T01:16:28;98030.72;;;-2.96;74.23
31357;BME280;60001;48.404;11.738;2023-02-10T01:18:00;98036.97;;;-2.99;74.88
31357;BME280;60001;48.404;11.738;2023-02-10T01:19:32;98038.03;;;-3.01;75.02
31357;BME280;60001;48.404;11.738;2023-02-10T01:21:07;98037.06;;;-3.00;74.47
31357;BME280;60001;48.404;11.738;2023-02-10T01:22:39;98031.47;;;-3.06;74.59
31357;BME280;60001;48.404;11.738;2023-02-10T01:24:11;98037.22;;;-3.02;75.42
31357;BME280;60001;48.404;11.738;2023-02-10T01:25:44;98039.09;;;-3.04;75.48
31357;BME280;60001;48.404;11.738;2023-02-10T01:27:16;98041.69;;;-3.04;74.57
31357;BME280;60001;48.404;11.738;2023-02-10T01:28:48;98037.22;;;-3.02;75.34
31357;BME280;60001;48.404;11.738;2023-02-10T01:30:20;98033.94;;;-3.04;75.76
31357;BME280;60001;48.404;11.738;2023-02-10T01:31:51;98042.97;;;-2.98;75.21
31357;BME280;60001;48.404;11.738;2023-02-10T01:33:23;98043.19;;;-3.01;74.83
31357;BME280;60001;48.404;11.738;2023-02-10T01:34:54;98041.56;;;-3.03;74.28
31357;BME280;60001;48.404;11.738;2023-02-10T01:36:26;98038.50;;;-3.08;74.81
31357;BME280;60001;48.404;11.738;2023-02-10T01:37:58;98044.16;;;-3.03;74.73
31357;BME280;60001;48.404;11.738;2023-02-10T01:39:29;98044.97;;;-3.02;74.69
31357;BME280;60001;48.404;11.738;2023-02-10T01:41:03;98038.28;;;-3.05;75.26
31357;BME280;60001;48.404;11.738;2023-02-10T01:42:35;98035.56;;;-3.03;74.85
31357;BME280;60001;48.404;11.738;2023-02-10T01:46:16;98050.94;;;-3.01;75.07
31357;BME280;60001;48.404;11.738;2023-02-10T01:48:09;98050.13;;;-3.02;74.41
31357;BME280;60001;48.404;11.738;2023-02-10T01:49:47;98050.25;;;-3.04;74.27
31357;BME280;60001;48.404;11.738;2023-02-10T01:51:24;98043.81;;;-3.09;73.92
31357;BME280;60001;48.404;11.738;2023-02-10T01:52:58;98046.66;;;-3.12;73.88
31357;BME280;60001;48.404;11.738;2023-02-10T01:54:37;98045.25;;;-3.16;73.51
31357;BME280;60001;48.404;11.738;2023-02-10T01:56:15;98051.59;;;-3.20;73.39
31357;BME280;60001;48.404;11.738;2023-02-10T01:57:49;98050.34;;;-3.26;73.86
31357;BME280;60001;48.404;11.738;2023-02-10T01:59:27;98043.91;;;-3.32;72.95
31357;BME280;60001;48.404;11.738;2023-02-10T02:01:02;98049.19;;;-3.33;73.48
31357;BME280;60001;48.404;11.738;2023-02-10T02:02:33;98046.13;;;-3.38;72.97
31357;BME280;60001;48.404;11.738;2023-02-10T02:04:06;98043.78;;;-3.41;73.78
31357;BME280;60001;48.404;11.738;2023-02-10T02:05:39;98044.97;;;-3.45;72.77
31357;BME280;60001;48.404;11.738;2023-02-10T02:07:11;98036.44;;;-3.57;73.80
31357;BME280;60001;48.404;11.738;2023-02-10T02:08:43;98047.34;;;-3.53;73.50
31357;BME280;60001;48.404;11.738;2023-02-10T02:10:15;98047.44;;;-3.55;73.65
31357;BME280;60001;48.404;11.738;2023-02-10T02:11:57;98039.13;;;-3.59;73.83
31357;BME280;60001;48.404;11.738;2023-02-10T02:13:49;98050.97;;;-3.56;73.92
31357;BME280;60001;48.404;11.738;2023-02-10T02:15:32;98052.19;;;-3.60;74.16
31357;BME280;60001;48.404;11.738;2023-02-10T02:17:14;98054.16;;;-3.64;74.18
31357;BME280;60001;48.404;11.738;2023-02-10T02:18:59;98052.78;;;-3.68;73.67
31357;BME280;60001;48.404;11.738;2023-02-10T02:20:59;98051.09;;;-3.69;73.92
31357;BME280;60001;48.404;11.738;2023-02-10T02:27:05;98048.78;;;-3.72;74.89
31357;BME280;60001;48.404;11.738;2023-02-10T02:29:00;98050.78;;;-3.75;74.65
31357;BME280;60001;48.404;11.738;2023-02-10T02:30:50;98046.44;;;-3.75;74.37
31357;BME280;60001;48.404;11.738;2023-02-10T02:32:27;98043.28;;;-3.78;74.18
31357;BME280;60001;48.404;11.738;2023-02-10T02:34:06;98044.09;;;-3.78;75.09
31357;BME280;60001;48.404;11.738;2023-02-10T02:35:47;98041.63;;;-3.79;74.98
31357;BME280;60001;48.404;11.738;2023-02-10T02:37:24;98034.34;;;-3.86;75.15
31357;BME280;60001;48.404;11.738;2023-02-10T02:39:00;98041.16;;;-3.84;74.42
31357;BME280;60001;48.404;11.738;2023-02-10T02:40:32;98047.97;;;-3.83;74.67
31357;BME280;60001;48.404;11.738;2023-02-10T02:42:19;98061.81;;;-3.84;75.36
31357;BME280;60001;48.404;11.738;2023-02-10T02:43:53;98065.44;;;-3.87;75.79
31357;BME280;60001;48.404;11.738;2023-02-10T02:45:33;98066.28;;;-3.87;75.09
31357;BME280;60001;48.404;11.738;2023-02-10T02:47:19;98070.63;;;-3.87;75.42
31357;BME280;60001;48.404;11.738;2023-02-10T02:49:03;98060.75;;;-3.93;75.95
31357;BME280;60001;48.404;11.738;2023-02-10T02:50:50;98068.16;;;-3.89;75.33
31357;BME280;60001;48.404;11.738;2023-02-10T02:52:35;98064.84;;;-3.91;75.85
31357;BME280;60001;48.404;11.738;2023-02-10T02:54:20;98059.69;;;-3.91;75.48
31357;BME280;60001;48.404;11.738;2023-02-10T02:56:07;98056.75;;;-3.97;75.20
31357;BME280;60001;48.404;11.738;2023-02-10T02:57:47;98071.09;;;-3.93;76.07
31357;BME280;60001;48.404;11.738;2023-02-10T02:59:29;98065.91;;;-3.93;75.69
31357;BME280;60001;48.404;11.738;2023-02-10T03:01:09;98058.19;;;-3.93;75.68
31357;BME280;60001;48.404;11.738;2023-02-10T03:02:44;98063.22;;;-3.92;76.03
31357;BME280;60001;48.404;11.738;2023-02-10T03:04:18;98058.88;;;-3.91;75.35
31357;BME280;60001;48.404;11.738;2023-02-10T03:05:50;98052.06;;;-3.92;76.28
31357;BME280;60001;48.404;11.738;2023-02-10T03:07:22;98053.84;;;-3.93;76.30
31357;BME280;60001;48.404;11.738;2023-02-10T03:08:54;98052.19;;;-3.94;76.19
31357;BME280;60001;48.404;11.738;2023-02-10T03:10:26;98060.06;;;-3.95;75.75
31357;BME280;60001;48.404;11.738;2023-02-10T03:11:58;98053.59;;;-4.01;76.23
31357;BME280;60001;48.404;11.738;2023-02-10T03:13:30;98057.94;;;-4.01;76.45
31357;BME280;60001;48.404;11.738;2023-02-10T03:15:01;98062.16;;;-4.00;75.60
31357;BME280;60001;48.404;11.738;2023-02-10T03:16:32;98056.06;;;-3.99;75.60
31357;BME280;60001;48.404;11.738;2023-02-10T03:18:04;98057.00;;;-4.00;75.79
31357;BME280;60001;48.404;11.738;2023-02-10T03:19:37;98063.94;;;-4.01;76.50
31357;BME280;60001;48.404;11.738;2023-02-10T03:21:09;98068.28;;;-4.01;75.97
31357;BME280;60001;48.404;11.738;2023-02-10T03:22:41;98070.84;;;-4.01;75.83
31357;BME280;60001;48.404;11.738;2023-02-10T03:24:14;98067.53;;;-4.03;76.55
31357;BME280;60001;48.404;11.738;2023-02-10T03:25:47;98073.66;;;-4.04;75.74
31357;BME280;60001;48.404;11.738;2023-02-10T03:27:19;98066.84;;;-4.05;75.91
31357;BME280;60001;48.404;11.738;2023-02-10T03:28:51;98064.97;;;-4.03;76.84
31357;BME280;60001;48.404;11.738;2023-02-10T03:30:21;98073.44;;;-4.01;76.10
31357;BME280;60001;48.404;11.738;2023-02-10T03:31:53;98057.59;;;-4.08;76.86
31357;BME280;60001;48.404;11.738;2023-02-10T03:33:25;98070.13;;;-4.03;76.79
31357;BME280;60001;48.404;11.738;2023-02-10T03:34:58;98071.88;;;-4.04;76.06
31357;BME280;60001;48.404;11.738;2023-02-10T03:36:30;98073.66;;;-4.04;76.91
31357;BME280;60001;48.404;11.738;2023-02-10T03:38:04;98076.34;;;-4.06;76.18
31357;BME280;60001;48.404;11.738;2023-02-10T03:39:35;98077.28;;;-4.07;76.69
31357;BME280;60001;48.404;11.738;2023-02-10T03:41:07;98066.28;;;-4.09;76.78
31357;BME280;60001;48.404;11.738;2023-02-10T03:42:39;98071.53;;;-4.10;76.97
31357;BME280;60001;48.404;11.738;2023-02-10T03:44:11;98072.47;;;-4.11;76.97
31357;BME280;60001;48.404;11.738;2023-02-10T03:45:43;98075.88;;;-4.11;76.38
31357;BME280;60001;48.404;11.738;2023-02-10T03:47:14;98084.44;;;-4.10;76.91
31357;BME280;60001;48.404;11.738;2023-02-10T03:48:45;98078.44;;;-4.11;76.94
31357;BME280;60001;48.404;11.738;2023-02-10T03:50:18;98081.84;;;-4.10;76.65
31357;BME280;60001;48.404;11.738;2023-02-10T03:51:50;98086.91;;;-4.09;76.78
31357;BME280;60001;48.404;11.738;2023-02-10T03:53:22;98080.81;;;-4.08;76.71
31357;BME280;60001;48.404;11.738;2023-02-10T03:54:54;98081.75;;;-4.09;76.54
31357;BME280;60001;48.404;11.738;2023-02-10T03:56:26;98084.22;;;-4.07;76.61
31357;BME280;60001;48.404;11.738;2023-02-10T03:57:59;98080.81;;;-4.08;76.17
31357;BME280;60001;48.404;11.738;2023-02-10T03:59:31;98085.84;;;-4.06;76.17
31357;BME280;60001;48.404;11.738;2023-02-10T04:01:09;98089.38;;;-4.07;76.46
31357;BME280;60001;48.404;11.738;2023-02-10T04:02:41;98089.50;;;-4.09;76.29
31357;BME280;60001;48.404;11.738;2023-02-10T04:04:12;98087.72;;;-4.08;76.53
31357;BME280;60001;48.404;11.738;2023-02-10T04:05:45;98092.16;;;-4.10;77.03
31357;BME280;60001;48.404;11.738;2023-02-10T04:07:17;98091.34;;;-4.11;76.18
31357;BME280;60001;48.404;11.738;2023-02-10T04:08:49;98087.00;;;-4.10;77.32
31357;BME280;60001;48.404;11.738;2023-02-10T04:10:21;98092.06;;;-4.09;76.62
31357;BME280;60001;48.404;11.738;2023-02-10T04:11:52;98091.25;;;-4.09;76.56
31357;BME280;60001;48.404;11.738;2023-02-10T04:13:24;98097.31;;;-4.10;76.42
31357;BME280;60001;48.404;11.738;2023-02-10T04:14:56;98099.81;;;-4.09;76.94
31357;BME280;60001;48.404;11.738;2023-02-10T04:16:28;98098.16;;;-4.10;77.27
31357;BME280;60001;48.404;11.738;2023-02-10T04:18:00;98107.66;;;-4.10;76.96
31357;BME280;60001;48.404;11.738;2023-02-10T04:19:32;98104.38;;;-4.13;76.89
31357;BME280;60001;48.404;11.738;2023-02-10T04:21:07;98108.59;;;-4.11;76.40
31357;BME280;60001;48.404;11.738;2023-02-10T04:22:39;98117.97;;;-4.10;77.41
31357;BME280;60001;48.404;11.738;2023-02-10T04:24:11;98117.25;;;-4.13;76.60
31357;BME280;60001;48.404;11.738;2023-02-10T04:25:43;98116.31;;;-4.11;76.95
31357;BME280;60001;48.404;11.738;2023-02-10T04:27:15;98116.44;;;-4.13;77.59
31357;BME280;60001;48.404;11.738;2023-02-10T04:28:46;98119.34;;;-4.18;77.20
31357;BME280;60001;48.404;11.738;2023-02-10T04:30:18;98126.88;;;-4.15;77.08
31357;BME280;60001;48.404;11.738;2023-02-10T04:31:50;98126.75;;;-4.13;76.84
31357;BME280;60001;48.404;11.738;2023-02-10T04:33:22;98133.44;;;-4.10;76.88
31357;BME280;60001;48.404;11.738;2023-02-10T04:34:55;98136.00;;;-4.10;77.49
31357;BME280;60001;48.404;11.738;2023-02-10T04:36:28;98135.09;;;-4.09;77.42
31357;BME280;60001;48.404;11.738;2023-02-10T04:38:00;98132.41;;;-4.08;77.08
31357;BME280;60001;48.404;11.738;2023-02-10T04:39:33;98130.66;;;-4.07;77.53
31357;BME280;60001;48.404;11.738;2023-02-10T04:41:05;98125.38;;;-4.06;77.44
31357;BME280;60001;48.404;11.738;2023-02-10T04:42:37;98114.34;;;-4.08;77.04
31357;BME280;60001;48.404;11.738;2023-02-10T04:44:09;98116.09;;;-4.08;76.97
31357;BME280;60001;48.404;11.738;2023-02-10T04:45:41;98111.06;;;-4.10;76.71
31357;BME280;60001;48.404;11.738;2023-02-10T04:47:13;98113.66;;;-4.10;76.92
31357;BME280;60001;48.404;11.738;2023-02-10T04:48:45;98126.75;;;-4.13;76.84
31357;BME280;60001;48.404;11.738;2023-02-10T04:50:17;98115.97;;;-4.18;77.68
31357;BME280;60001;48.404;11.738;2023-02-10T04:51:51;98117.25;;;-4.13;76.76
31357;BME280;60001;48.404;11.738;2023-02-10T04:53:28;98122.41;;;-4.13;77.11
31357;BME280;60001;48.404;11.738;2023-02-10T04:55:00;98119.84;;;-4.13;76.93
31357;BME280;60001;48.404;11.738;2023-02-10T04:56:34;98123.47;;;-4.15;77.45
31357;BME280;60001;48.404;11.738;2023-02-10T04:58:10;98125.13;;;-4.14;77.81
31357;BME280;60001;48.404;11.738;2023-02-10T04:59:44;98131.91;;;-4.13;77.58
31357;BME280;60001;48.404;11.738;2023-02-10T05:01:16;98132.03;;;-4.15;77.99
31357;BME280;60001;48.404;11.738;2023-02-10T05:02:52;98135.44;;;-4.14;77.81
31357;BME280;60001;48.404;11.738;2023-02-10T05:04:23;98134.63;;;-4.15;77.06
31357;BME280;60001;48.404;11.738;2023-02-10T05:05:57;98132.25;;;-4.18;78.14
31357;BME280;60001;48.404;11.738;2023-02-10T05:07:32;98135.56;;;-4.16;77.91
31357;BME280;60001;48.404;11.738;2023-02-10T05:09:06;98143.19;;;-4.14;77.15
31357;BME280;60001;48.404;11.738;2023-02-10T05:10:38;98143.31;;;-4.16;77.15
31357;BME280;60001;48.404;11.738;2023-02-10T05:12:14;98147.63;;;-4.16;77.58
31357;BME280;60001;48.404;11.738;2023-02-10T05:13:46;98140.72;;;-4.16;77.83
31357;BME280;60001;48.404;11.738;2023-02-10T05:15:18;98116.53;;;-4.26;77.83
31357;BME280;60001;48.404;11.738;2023-02-10T05:16:50;98141.66;;;-4.17;77.86
31357;BME280;60001;48.404;11.738;2023-02-10T05:18:22;98140.72;;;-4.16;77.17
31357;BME280;60001;48.404;11.738;2023-02-10T05:19:54;98141.53;;;-4.15;77.31
31357;BME280;60001;48.404;11.738;2023-02-10T05:21:25;98139.09;;;-4.17;77.16
31357;BME280;60001;48.404;11.738;2023-02-10T05:22:58;98135.91;;;-4.20;77.09
31357;BME280;60001;48.404;11.738;2023-02-10T05:24:30;98141.06;;;-4.20;77.53
31357;BME280;60001;48.404;11.738;2023-02-10T05:26:02;98129.91;;;-4.21;77.43
31357;BME280;60001;48.404;11.738;2023-02-10T05:27:36;98136.84;;;-4.21;77.03
31357;BME280;60001;48.404;11.738;2023-02-10T05:29:08;98136.84;;;-4.21;77.83
31357;BME280;60001;48.404;11.738;2023-02-10T05:30:40;98134.38;;;-4.23;78.15
31357;BME280;60001;48.404;11.738;2023-02-10T05:32:10;98137.91;;;-4.24;78.16
31357;BME280;60001;48.404;11.738;2023-02-10T05:33:42;98138.81;;;-4.25;78.26
31357;BME280;60001;48.404;11.738;2023-02-10T05:35:14;98134.38;;;-4.23;78.38
31357;BME280;60001;48.404;11.738;2023-02-10T05:36:45;98139.63;;;-4.24;78.00
31357;BME280;60001;48.404;11.738;2023-02-10T05:38:18;98139.03;;;-4.28;77.51
31357;BME280;60001;48.404;11.738;2023-02-10T05:39:49;98136.22;;;-4.25;78.15
31357;BME280;60001;48.404;11.738;2023-02-10T05:41:21;98135.31;;;-4.24;77.94
31357;BME280;60001;48.404;11.738;2023-02-10T05:42:54;98118.88;;;-4.34;78.66
31357;BME280;60001;48.404;11.738;2023-02-10T05:44:28;98138.25;;;-4.17;77.88
31357;BME280;60001;48.404;11.738;2023-02-10T05:46:01;98143.50;;;-4.19;77.61
31357;BME280;60001;48.404;11.738;2023-02-10T05:47:33;98134.81;;;-4.29;77.49
31357;BME280;60001;48.404;11.738;2023-02-10T05:49:05;98149.94;;;-4.24;77.84
31357;BME280;60001;48.404;11.738;2023-02-10T05:50:36;98157.09;;;-4.28;77.67
31357;BME280;60001;48.404;11.738;2023-02-10T05:52:12;98152.88;;;-4.29;77.41
31357;BME280;60001;48.404;11.738;2023-02-10T05:53:45;98154.63;;;-4.29;78.01
31357;BME280;60001;48.404;11.738;2023-02-10T05:55:17;98153.09;;;-4.32;78.34
31357;BME280;60001;48.404;11.738;2023-02-10T05:56:49;98156.59;;;-4.33;77.81
31357;BME280;60001;48.404;11.738;2023-02-10T05:58:22;98157.44;;;-4.32;78.30
31357;BME280;60001;48.404;11.738;2023-02-10T05:59:54;98159.19;;;-4.33;78.42
31357;BME280;60001;48.404;11.738;2023-02-10T06:01:26;98155.09;;;-4.35;77.96
31357;BME280;60001;48.404;11.738;2023-02-10T06:02:57;98162.69;;;-4.34;77.72
31357;BME280;60001;48.404;11.738;2023-02-10T06:04:29;98156.84;;;-4.36;78.38
31357;BME280;60001;48.404;11.738;2023-02-10T06:06:01;98160.38;;;-4.37;78.09
31357;BME280;60001;48.404;11.738;2023-02-10T06:07:34;98165.53;;;-4.37;78.54
31357;BME280;60001;48.404;11.738;2023-02-10T06:09:07;98164.59;;;-4.36;77.98
31357;BME280;60001;48.404;11.738;2023-02-10T06:10:39;98167.84;;;-4.34;78.45
31357;BME280;60001;48.404;11.738;2023-02-10T06:12:11;98167.16;;;-4.36;77.87
31357;BME280;60001;48.404;11.738;2023-02-10T06:13:43;98170.44;;;-4.34;78.78
31357;BME280;60001;48.404;11.738;2023-02-10T06:15:14;98166.09;;;-4.33;78.31
31357;BME280;60001;48.404;11.738;2023-02-10T06:16:46;98167.75;;;-4.32;78.32
31357;BME280;60001;48.404;11.738;2023-02-10T06:18:18;98153.56;;;-4.38;77.98
31357;BME280;60001;48.404;11.738;2023-02-10T06:19:50;98176.28;;;-4.32;78.15
31357;BME280;60001;48.404;11.738;2023-02-10T06:21:22;98177.25;;;-4.33;78.44
31357;BME280;60001;48.404;11.738;2023-02-10T06:22:54;98176.66;;;-4.36;77.87
31357;BME280;60001;48.404;11.738;2023-02-10T06:24:27;98170.06;;;-4.41;78.13
31357;BME280;60001;48.404;11.738;2023-02-10T06:25:59;98182.41;;;-4.33;77.94
31357;BME280;60001;48.404;11.738;2023-02-10T06:27:31;98185.91;;;-4.34;78.58
31357;BME280;60001;48.404;11.738;2023-02-10T06:29:02;98182.50;;;-4.34;78.61
31357;BME280;60001;48.404;11.738;2023-02-10T06:30:34;98186.97;;;-4.36;77.83
31357;BME280;60001;48.404;11.738;2023-02-10T06:32:06;98187.28;;;-4.41;77.93
31357;BME280;60001;48.404;11.738;2023-02-10T06:33:38;98194.09;;;-4.40;78.10
31357;BME280;60001;48.404;11.738;2023-02-10T06:35:10;98196.66;;;-4.40;78.50
31357;BME280;60001;48.404;11.738;2023-02-10T06:36:42;98190.69;;;-4.41;77.60
31357;BME280;60001;48.404;11.738;2023-02-10T06:38:14;98195.03;;;-4.41;78.23
31357;BME280;60001;48.404;11.738;2023-02-10T06:39:47;98197.59;;;-4.41;78.32
31357;BME280;60001;48.404;11.738;2023-02-10T06:41:19;98203.59;;;-4.41;78.62
31357;BME280;60001;48.404;11.738;2023-02-10T06:42:50;98205.22;;;-4.39;78.01
31357;BME280;60001;48.404;11.738;2023-02-10T06:44:22;98204.28;;;-4.38;77.76
31357;BME280;60001;48.404;11.738;2023-02-10T06:45:54;98208.63;;;-4.39;77.93
31357;BME280;60001;48.404;11.738;2023-02-10T06:47:26;98205.03;;;-4.36;78.27
31357;BME280;60001;48.404;11.738;2023-02-10T06:48:58;98208.41;;;-4.36;78.12
31357;BME280;60001;48.404;11.738;2023-02-10T06:50:32;98217.56;;;-4.32;78.01
31357;BME280;60001;48.404;11.738;2023-02-10T06:52:04;98220.88;;;-4.30;77.78
31357;BME280;60001;48.404;11.738;2023-02-10T06:53:36;98226.22;;;-4.33;78.72
31357;BME280;60001;48.404;11.738;2023-02-10T06:55:10;98212.97;;;-4.39;78.76
31357;BME280;60001;48.404;11.738;2023-02-10T06:56:42;98231.56;;;-4.23;78.52
31357;BME280;60001;48.404;11.738;2023-02-10T06:58:16;98233.22;;;-4.22;78.60
31357;BME280;60001;48.404;11.738;2023-02-10T06:59:48;98222.06;;;-4.23;79.08
31357;BME280;60001;48.404;11.738;2023-02-10T07:01:23;98240.06;;;-4.10;78.63
31357;BME280;60001;48.404;11.738;2023-02-10T07:02:54;98239.59;;;-4.04;78.94
31357;BME280;60001;48.404;11.738;2023-02-10T07:04:26;98233.72;;;-4.06;78.83
31357;BME280;60001;48.404;11.738;2023-02-10T07:05:58;98239.97;;;-3.97;78.15
31357;BME280;60001;48.404;11.738;2023-02-10T07:07:30;98227.66;;;-3.94;78.27
31357;BME280;60001;48.404;11.738;2023-02-10T07:09:02;98237.53;;;-3.88;78.91
31357;BME280;60001;48.404;11.738;2023-02-10T07:10:36;98233.06;;;-3.86;78.25
31357;BME280;60001;48.404;11.738;2023-02-10T07:12:08;98245.09;;;-3.73;78.35
31357;BME280;60001;48.404;11.738;2023-02-10T07:13:39;98253.31;;;-3.68;79.21
31357;BME280;60001;48.404;11.738;2023-02-10T07:15:13;98235.00;;;-3.65;79.07
31357;BME280;60001;48.404;11.738;2023-02-10T07:16:45;98241.00;;;-3.53;78.28
31357;BME280;60001;48.404;11.738;2023-02-10T07:18:17;98251.56;;;-3.45;78.99
31357;BME280;60001;48.404;11.738;2023-02-10T07:19:49;98248.53;;;-3.39;78.98
31357;BME280;60001;48.404;11.738;2023-02-10T07:21:21;98253.00;;;-3.30;78.53
31357;BME280;60001;48.404;11.738;2023-02-10T07:22:53;98252.28;;;-3.21;78.34
31357;BME280;60001;48.404;11.738;2023-02-10T07:24:25;98255.22;;;-3.14;78.71
31357;BME280;60001;48.404;11.738;2023-02-10T07:25:58;98257.34;;;-3.08;78.45
31357;BME280;60001;48.404;11.738;2023-02-10T07:27:30;98262.97;;;-3.03;78.06
31357;BME280;60001;48.404;11.738;2023-02-10T07:29:02;98261.56;;;-2.96;78.61
31357;BME280;60001;48.404;11.738;2023-02-10T07:30:34;98249.22;;;-2.92;78.18
31357;BME280;60001;48.404;11.738;2023-02-10T07:32:06;98261.31;;;-2.82;78.21
31357;BME280;60001;48.404;11.738;2023-02-10T07:33:38;98271.66;;;-2.70;78.21
31357;BME280;60001;48.404;11.738;2023-02-10T07:35:10;98271.75;;;-2.61;79.18
31357;BME280;60001;48.404;11.738;2023-02-10T07:36:42;98273.72;;;-2.53;79.09
31357;BME280;60001;48.404;11.738;2023-02-10T07:38:13;98277.47;;;-2.46;78.16
31357;BME280;60001;48.404;11.738;2023-02-10T07:39:45;98280.06;;;-2.35;79.00
31357;BME280;60001;48.404;11.738;2023-02-10T07:41:21;98280.13;;;-2.25;78.64
31357;BME280;60001;48.404;11.738;2023-02-10T07:42:53;98283.19;;;-2.20;77.64
31357;BME280;60001;48.404;11.738;2023-02-10T07:44:24;98280.22;;;-2.15;78.12
31357;BME280;60001;48.404;11.738;2023-02-10T07:45:56;98275.63;;;-2.12;78.17
31357;BME280;60001;48.404;11.738;2023-02-10T07:47:28;98272.66;;;-2.07;77.40
31357;BME280;60001;48.404;11.738;2023-02-10T07:49:00;98278.88;;;-1.99;76.94
31357;BME280;60001;48.404;11.738;2023-02-10T07:50:32;98273.19;;;-1.92;77.05
31357;BME280;60001;48.404;11.738;2023-02-10T07:52:04;98276.25;;;-1.87;77.13
31357;BME280;60001;48.404;11.738;2023-02-10T07:53:36;98275.72;;;-1.81;77.35
31357;BME280;60001;48.404;11.738;2023-02-10T07:55:08;98284.72;;;-1.64;78.05
31357;BME280;60001;48.404;11.738;2023-02-10T07:56:41;98290.66;;;-1.53;77.11
31357;BME280;60001;48.404;11.738;2023-02-10T07:58:13;98283.06;;;-1.45;77.25
31357;BME280;60001;48.404;11.738;2023-02-10T07:59:45;98287.53;;;-1.47;75.70
31357;BME280;60001;48.404;11.738;2023-02-10T08:01:17;98288.13;;;-1.43;75.67
31357;BME280;60001;48.404;11.738;2023-02-10T08:02:48;98281.66;;;-1.49;75.71
31357;BME280;60001;48.404;11.738;2023-02-10T08:04:20;98270.34;;;-1.48;76.47
31357;BME280;60001;48.404;11.738;2023-02-10T08:05:52;98274.97;;;-1.51;74.48
31357;BME280;60001;48.404;11.738;2023-02-10T08:07:24;98280.72;;;-1.48;75.24
31357;BME280;60001;48.404;11.738;2023-02-10T08:08:56;98270.84;;;-1.54;74.52
31357;BME280;60001;48.404;11.738;2023-02-10T08:10:28;98275.16;;;-1.43;75.44
31357;BME280;60001;48.404;11.738;2023-02-10T08:12:01;98272.59;;;-1.33;75.49
31357;BME280;60001;48.404;11.738;2023-02-10T08:13:33;98271.97;;;-1.26;74.87
31357;BME280;60001;48.404;11.738;2023-02-10T08:15:07;98278.03;;;-1.16;75.26